MYGF METAR and TAF weather

Enter ICAO airport designator
Station Type Date Time Source
MYGF METAR 2019/06/18 14:00 UTC NOAA

MYGF 181400Z 16008KT 9999 -SHRA SCT018 BKN140 28/25 A3008


Station Type Date Time Source
MYGF Decoded METAR 2019/06/18 14:00 UTC NOAA

Freeport, Grand Bahama, Bahamas, The (MYGF) 26-33N 078-42W 11M
Jun 18, 2019 - 10:00 AM EDT / 2019.06.18 1400 UTC
Wind: from the SSE (160 degrees) at 9 MPH (8 KT):0
Visibility: greater than 7 mile(s):0
Sky conditions: mostly cloudy
Weather: light rain showers
Temperature: 82 F (28 C)
Dew Point: 77 F (25 C)
Relative Humidity: 83%
Pressure (altimeter): 30.08 in. Hg (1018 hPa)
ob: MYGF 181400Z 16008KT 9999 -SHRA SCT018 BKN140 28/25 A3008
cycle: 14

Station Type Date Time Source
MYGF TAF 2019/06/18 12:37 UTC NOAA

TAF MYGF 181100Z 1812/1912 13008KT 7000 SHRA FEW015CB SCT080 OVC180
BECMG 1822/1824 13010KT 9999 SCT018CB BKN100

Example: see airport list